Nearby METAR Reports

 

KMGY - Dayton, Ohio, USA
Distance from station: N 3mi, 5km
Updated: Thu, Oct-19-2017 11:53am EDT
Clear
Clear
 Wind from SW
Wind: SW 10 mph , 17 km/h
Temperature: 64°F , 18°C
Dew Point: 48°F , 9°C
Humidity: 56%
Barometer: 30.23 inHg , 1023.7 hPa
Clouds: Clear
Visibility: 10 miles , 16 km
2017/10/19 15:53 KMGY 191553Z AUTO 23009KT 10SM CLR 18/09 A3023 RMK AO2 SLP235 T01780089
KMWO - Middletown/Hook, Ohio, USA
Distance from station: W 9mi, 14km
Updated: Thu, Oct-19-2017 11:55am EDT
Clear
Clear
 Wind from SSW
Wind: SSW 8 mph , 13 km/h
Temperature: 64°F , 18°C
Dew Point: 50°F , 10°C
Humidity: 60%
Barometer: 30.24 inHg , 1024 hPa
Clouds: Clear
Visibility: 10 miles , 16 km
2017/10/19 15:55 KMWO 191555Z AUTO 21007KT 10SM CLR 18/10 A3024 RMK AO2 T01750099
 
KHAO - Hamilton, Ohio, USA
Distance from station: SW 20mi, 32km
Updated: Thu, Oct-19-2017 11:53am EDT
Clear
Clear
 Wind from WSW
Wind: WSW 10 mph , 17 km/h
Temperature: 66°F , 19°C
Dew Point: 50°F , 10°C
Humidity: 56%
Barometer: 30.25 inHg , 1024.4 hPa
Clouds: Clear
Visibility: 10 miles , 16 km
2017/10/19 15:53 KHAO 191553Z AUTO 25009KT 10SM CLR 19/10 A3025 RMK AO2 SLP243 T01890100
KFFO - Wright Paterson, Ohio, USA
Distance from station: NNE 21mi, 34km
Updated: Thu, Oct-19-2017 11:58am EDT
Clear
Clear
 Wind from SW
Wind: SW 14 mph , 22 km/h
Temperature: 64°F , 18°C
Dew Point: 48°F , 9°C
Humidity: 56%
Barometer: 30.22 inHg , 1023.4 hPa
Clouds: Clear
Visibility: 10 miles , 16 km
2017/10/19 15:58 KFFO 191558Z AUTO 23012KT 10SM CLR 18/09 A3022 RMK AO2 SLP236 T01770088
 
KDAY - Dayton, Ohio, USA
Distance from station: N 24mi, 39km
Updated: Thu, Oct-19-2017 11:56am EDT
Partly cloudy
Partly cloudy
 Wind from SW
Wind: SW 10 mph , 17 km/h
Temperature: 64°F , 18°C
Dew Point: 52°F , 11°C
Humidity: 64%
Barometer: 30.22 inHg , 1023.4 hPa
Clouds: Partly cloudy
Visibility: 10 miles , 16 km
Cloud details: Partly cloudy 25000 ft
2017/10/19 15:56 KDAY 191556Z 22009KT 10SM SCT250 18/11 A3022 RMK AO2 SLP231 T01830106
KILN - Wilmington, Ohio, USA
Distance from station: ESE 25mi, 39km
Updated: Thu, Oct-19-2017 11:54am EDT
Clear
Clear
 Wind from SW
Wind: SW 14 mph , 22 km/h
Temperature: 64°F , 18°C
Dew Point: 52°F , 11°C
Humidity: 64%
Barometer: 30.23 inHg , 1023.7 hPa
Clouds: Clear
Visibility: 10 miles , 16 km
2017/10/19 15:54 KILN 191554Z AUTO 22012KT 10SM CLR 18/11 A3023 RMK AO2 SLP242 T01830106
 
KSGH - Springfield Muni, Ohio, USA
Distance from station: NE 29mi, 46km
Updated: Thu, Oct-19-2017 11:56am EDT
Clear
Clear
 Wind from SW
Wind: SW 15 mph , 24 km/h, Gust: 22 mph , 35 km/h
Temperature: 66°F , 19°C
Dew Point: 48°F , 9°C
Humidity: 52%
Barometer: 30.22 inHg , 1023.4 hPa
Clouds: Clear
Visibility: 10 miles , 16 km
2017/10/19 15:56 KSGH 191556Z AUTO 23013G19KT 10SM CLR 19/09 A3022 RMK AO2 SLP234 T01890094 $
KI69 - Batavia, Ohio, USA
Distance from station: S 32mi, 52km
Updated: Thu, Oct-19-2017 11:54am EDT
Clear
Clear
 Wind from SW
Wind: SW 8 mph , 13 km/h
Temperature: 64°F , 18°C
Dew Point: 48°F , 9°C
Humidity: 56%
Barometer: 30.27 inHg , 1025.1 hPa
Clouds: Clear
Visibility: 10 miles , 16 km
2017/10/19 15:54 KI69 191554Z AUTO 23007KT 10SM CLR 18/09 A3027 RMK AO2 T01780091
 
KLUK - Cincinnat/Lunken, Ohio, USA
Distance from station: SSW 33mi, 53km
Updated: Thu, Oct-19-2017 11:53am EDT
Clear
Clear
 Wind from SW
Wind: SW 12 mph , 19 km/h
Temperature: 66°F , 19°C
Dew Point: 52°F , 11°C
Humidity: 60%
Barometer: 30.26 inHg , 1024.7 hPa
Clouds: Clear
Visibility: 10 miles , 16 km
2017/10/19 15:53 KLUK 191553Z 22010KT 10SM CLR 19/11 A3026 RMK AO2 SLP246 T01890106
KCVG - Covington, Kentucky, USA
Distance from station: SSW 42mi, 67km
Updated: Thu, Oct-19-2017 11:52am EDT
Partly cloudy
Partly cloudy
 Wind from SW
Wind: SW 10 mph , 17 km/h
Temperature: 63°F , 17°C
Dew Point: 50°F , 10°C
Humidity: 64%
Barometer: 30.26 inHg , 1024.7 hPa
Clouds: Partly cloudy
Visibility: 10 miles , 16 km
Cloud details: Partly cloudy 30000 ft
2017/10/19 15:52 KCVG 191552Z 23009KT 10SM SCT300 17/10 A3026 RMK AO2 SLP242 T01720100
 
KVES - Versailles, Ohio, USA
Distance from station: NNW 47mi, 76km
Updated: Thu, Oct-19-2017 11:55am EDT
Clear
Clear
 Wind from WSW
Wind: WSW 12 mph , 19 km/h
Temperature: 64°F , 18°C
Dew Point: 48°F , 9°C
Humidity: 56%
Barometer: 30.20 inHg , 1022.7 hPa
Clouds: Clear
Visibility: 10 miles , 16 km
2017/10/19 15:55 KVES 191555Z AUTO 25010KT 10SM CLR 18/09 A3020 RMK AO2